Bernardo de Irigoyen, Argentina
Current Conditions -  °F | °C
As of 2:12 PM on Friday 31 Oct 2014 (Local Time) from SAAR Reporting Station
Drizzle Drizzle  
Wind Chill: 70°   Ceiling: 5000
Heat Index: 70°   Visibility: 6mi
Dew Point: 55°   Wind: 5mph
Humidity: 60%   Direction: 70°ENE
Pressure: 29.91"   Gusts: NA
Location:  32.21°S, 61.14°W
Report Text: SAAR 311712Z 07004KT 9000 -DZ FEW028 SCT030 BKN050 21/13 Q1013
Loading
Personal Weather Stations






























Interactive Weather Map
Tropical Storm Tracking
New forecast layout! Learn more

10-Day Weather Forecast

Advertisements
Track Severe Weather on mobile